Time;durP1;ratioP1;P1;durP2;ratioP2;P2;SDS_P1;SDS_P2;PMS_P1;PMS_P2;Temp;Humidity;BMP_temperature;BMP_pressure;BME280_temperature;BME280_humidity;BME280_pressure;Samples;Min_cycle;Max_cycle;Signal;HPM_P1;HPM_P2
2022/07/17 00:01:50;;;;;;;1.00;0.80;;;;;;;28.24;40.64;101097.00;4873822;29;20057;-76
2022/07/17 00:04:18;;;;;;;2.08;0.50;;;;;;;28.25;40.56;101099.63;4872310;29;20492;-76
2022/07/17 00:06:47;;;;;;;3.05;0.57;;;;;;;28.25;40.32;101098.75;4878621;29;20542;-76
2022/07/17 00:09:15;;;;;;;1.27;0.47;;;;;;;28.22;40.97;101096.19;4867903;29;20049;-75
2022/07/17 00:11:46;;;;;;;1.60;0.65;;;;;;;28.17;42.54;101097.22;4866858;29;20056;-75
2022/07/17 00:14:14;;;;;;;1.98;0.50;;;;;;;28.12;40.63;101099.22;4871873;29;20071;-76
2022/07/17 00:16:43;;;;;;;1.38;0.60;;;;;;;28.06;42.07;101096.81;4876934;29;20416;-75
2022/07/17 00:19:13;;;;;;;1.50;0.60;;;;;;;27.92;42.75;101092.00;4879692;29;20049;-75
2022/07/17 00:21:42;;;;;;;2.00;0.70;;;;;;;27.82;43.38;101095.88;4878442;29;20670;-75
2022/07/17 00:24:12;;;;;;;1.30;0.75;;;;;;;27.72;42.93;101091.84;4873868;29;20079;-76
2022/07/17 00:26:40;;;;;;;1.35;0.70;;;;;;;27.67;43.72;101093.78;4876076;29;20072;-76
2022/07/17 00:29:10;;;;;;;1.25;0.60;;;;;;;27.60;43.16;101090.47;4871901;29;20049;-75
2022/07/17 00:31:39;;;;;;;2.92;0.70;;;;;;;27.52;42.90;101090.75;4877255;29;20053;-75
2022/07/17 00:34:07;;;;;;;0.60;0.45;;;;;;;27.49;42.42;101087.34;4874678;29;20144;-76
2022/07/17 00:36:36;;;;;;;0.57;0.50;;;;;;;27.47;42.79;101091.84;4873908;29;20105;-74
2022/07/17 00:39:05;;;;;;;1.73;0.60;;;;;;;27.45;43.37;101086.59;4873327;29;20128;-74
2022/07/17 00:41:34;;;;;;;0.82;0.40;;;;;;;27.43;44.53;101087.56;4880559;29;20096;-74
2022/07/17 00:44:07;;;;;;;1.48;0.70;;;;;;;27.35;41.12;101079.84;4870626;29;20128;-75
2022/07/17 00:46:37;;;;;;;1.60;0.70;;;;;;;27.24;41.61;101077.59;4874871;29;20045;-75
2022/07/17 00:49:07;;;;;;;1.88;0.60;;;;;;;27.28;45.32;101084.53;4875572;29;20514;-74
2022/07/17 00:51:36;;;;;;;1.60;0.68;;;;;;;27.24;43.47;101077.59;4875687;29;20060;-74
2022/07/17 00:54:05;;;;;;;2.67;0.50;;;;;;;27.08;44.14;101077.22;4870696;29;21194;-74
2022/07/17 00:56:34;;;;;;;1.13;0.50;;;;;;;26.98;44.93;101082.88;4876263;29;20088;-75
2022/07/17 00:59:04;;;;;;;0.85;0.50;;;;;;;26.92;45.40;101074.22;4874195;29;20056;-75
2022/07/17 01:01:33;;;;;;;1.10;0.60;;;;;;;26.91;46.10;101076.91;4872257;29;20070;-74
2022/07/17 01:04:03;;;;;;;1.30;0.55;;;;;;;26.90;44.61;101077.84;4869793;29;20061;-74
2022/07/17 01:06:32;;;;;;;4.20;0.68;;;;;;;26.80;45.78;101068.44;4867451;29;20474;-74
2022/07/17 01:09:01;;;;;;;3.17;0.60;;;;;;;26.74;45.91;101077.47;4865353;29;20055;-75
2022/07/17 01:11:29;;;;;;;2.10;0.70;;;;;;;26.80;45.68;101066.66;4879950;29;20064;-74
2022/07/17 01:13:58;;;;;;;1.42;0.80;;;;;;;26.94;45.69;101068.84;4874895;29;20128;-74
2022/07/17 01:16:27;;;;;;;2.42;0.70;;;;;;;27.04;45.10;101066.75;4875024;29;20499;-75
2022/07/17 01:18:57;;;;;;;1.23;0.77;;;;;;;27.11;44.51;101060.31;4854424;29;20084;-74
2022/07/17 01:21:27;;;;;;;2.35;0.80;;;;;;;27.14;44.29;101057.53;4861360;29;20117;-75
2022/07/17 01:23:56;;;;;;;0.68;0.55;;;;;;;27.14;44.53;101057.53;4863823;29;20053;-75
2022/07/17 01:26:24;;;;;;;1.75;0.70;;;;;;;27.19;45.33;101052.06;4863070;29;20136;-75
2022/07/17 01:28:53;;;;;;;1.30;0.70;;;;;;;27.20;44.98;101054.69;4864292;29;20057;-75
2022/07/17 01:31:22;;;;;;;1.10;0.60;;;;;;;27.29;43.37;101058.81;4857969;29;20049;-75
2022/07/17 01:33:51;;;;;;;1.50;0.80;;;;;;;27.39;43.28;101054.91;4862067;29;20137;-75
2022/07/17 01:36:24;;;;;;;1.15;0.70;;;;;;;27.47;42.31;101055.50;4856119;29;20093;-74
2022/07/17 01:38:56;;;;;;;2.90;1.00;;;;;;;27.43;42.90;101050.38;4864481;29;20083;-74
2022/07/17 01:41:24;;;;;;;1.17;0.85;;;;;;;27.34;42.94;101044.44;4856696;29;20053;-75
2022/07/17 01:43:53;;;;;;;4.78;0.70;;;;;;;27.27;42.04;101044.72;4851702;29;20532;-75
2022/07/17 01:46:22;;;;;;;0.88;0.70;;;;;;;27.15;42.10;101046.84;4853976;29;20140;-75
2022/07/17 01:48:50;;;;;;;3.72;0.55;;;;;;;27.15;42.33;101038.91;4858414;29;20050;-77
2022/07/17 01:51:19;;;;;;;0.80;0.70;;;;;;;27.11;42.16;101042.56;4856836;29;20864;-75
2022/07/17 01:53:48;;;;;;;0.68;0.50;;;;;;;27.08;42.51;101044.47;4861472;29;20057;-74
2022/07/17 01:56:18;;;;;;;1.67;0.55;;;;;;;27.05;43.71;101044.56;4864157;29;20472;-75
2022/07/17 01:58:46;;;;;;;0.85;0.73;;;;;;;26.98;44.29;101054.53;4850403;29;20053;-75
2022/07/17 02:01:15;;;;;;;1.23;0.70;;;;;;;26.86;43.46;101053.16;4857743;29;20496;-74
2022/07/17 02:03:43;;;;;;;4.22;0.68;;;;;;;26.74;43.18;101053.59;4857737;29;20491;-74
2022/07/17 02:06:12;;;;;;;2.45;0.65;;;;;;;26.63;43.41;101056.59;4852588;29;20046;-76
2022/07/17 02:08:41;;;;;;;0.75;0.65;;;;;;;26.54;43.42;101055.09;4857137;29;20061;-77
2022/07/17 02:11:10;;;;;;;1.27;0.70;;;;;;;26.43;44.30;101057.19;4856175;29;20053;-77
2022/07/17 02:13:40;;;;;;;1.65;0.77;;;;;;;26.36;44.10;101058.28;4862020;29;20065;-76
2022/07/17 02:16:09;;;;;;;1.17;0.70;;;;;;;26.28;44.37;101055.03;4856747;28;20057;-76
2022/07/17 02:18:37;;;;;;;0.95;0.68;;;;;;;26.20;44.66;101054.38;4870440;29;20601;-77
2022/07/17 02:21:06;;;;;;;1.80;0.80;;;;;;;26.10;45.07;101054.66;4864098;29;20413;-79
2022/07/17 02:23:35;;;;;;;1.38;0.90;;;;;;;26.04;45.20;101053.97;4869170;29;20522;-78
2022/07/17 02:26:03;;;;;;;1.05;0.90;;;;;;;25.97;45.05;101053.28;4867438;29;20057;-79
2022/07/17 02:28:32;;;;;;;1.75;1.08;;;;;;;25.87;45.21;101052.69;4867584;29;20396;-82
2022/07/17 02:31:02;;;;;;;1.90;0.77;;;;;;;25.69;43.91;101058.50;4871505;29;20053;-81
2022/07/17 02:33:31;;;;;;;1.30;0.95;;;;;;;25.54;44.49;101062.47;4870330;29;20392;-77
2022/07/17 02:36:01;;;;;;;1.10;0.80;;;;;;;25.42;45.02;101060.13;4872722;29;20544;-77
2022/07/17 02:38:30;;;;;;;2.22;0.98;;;;;;;25.32;45.27;101063.97;4869633;29;20056;-78
2022/07/17 02:40:58;;;;;;;1.00;0.90;;;;;;;25.19;45.17;101061.63;4876974;29;20069;-78
2022/07/17 02:43:27;;;;;;;2.33;1.42;;;;;;;25.09;45.77;101060.09;4879811;29;20530;-75
2022/07/17 02:45:55;;;;;;;2.65;1.10;;;;;;;24.99;45.54;101051.53;4872333;29;20056;-75
2022/07/17 02:48:26;;;;;;;3.72;1.20;;;;;;;24.90;45.74;101056.16;4872199;29;20049;-76
2022/07/17 02:50:54;;;;;;;1.85;1.10;;;;;;;24.79;46.50;101059.09;4873421;29;20461;-75
2022/07/17 02:53:23;;;;;;;2.60;1.20;;;;;;;24.71;46.68;101056.63;4875330;29;20049;-75
2022/07/17 02:55:51;;;;;;;6.07;1.23;;;;;;;24.63;46.61;101053.31;4873182;29;20049;-74
2022/07/17 02:58:20;;;;;;;1.27;1.02;;;;;;;24.53;47.00;101052.66;4876057;29;20060;-75
2022/07/17 03:00:48;;;;;;;3.25;1.20;;;;;;;24.43;47.11;101051.97;4866725;29;20065;-75
2022/07/17 03:03:18;;;;;;;2.60;1.30;;;;;;;24.31;46.39;101057.53;4872921;29;20052;-75
2022/07/17 03:05:48;;;;;;;2.22;1.40;;;;;;;24.23;47.31;101060.38;4862553;29;20060;-75
2022/07/17 03:08:16;;;;;;;1.80;1.20;;;;;;;24.12;48.15;101059.75;4868455;29;20049;-74
2022/07/17 03:10:45;;;;;;;2.22;1.02;;;;;;;24.04;47.48;101059.03;4857558;29;20054;-74
2022/07/17 03:13:14;;;;;;;2.65;1.50;;;;;;;23.99;47.72;101064.41;4858776;29;20080;-74
2022/07/17 03:15:42;;;;;;;2.67;1.10;;;;;;;23.94;48.78;101066.28;4885194;29;20049;-74
2022/07/17 03:18:11;;;;;;;1.80;1.10;;;;;;;23.88;48.19;101068.19;4855700;29;20507;-73
2022/07/17 03:20:39;;;;;;;1.75;1.10;;;;;;;23.78;47.79;101067.50;4859942;29;20089;-73
2022/07/17 03:23:10;;;;;;;1.90;1.20;;;;;;;23.68;47.48;101066.78;4847635;29;20058;-75
2022/07/17 03:25:39;;;;;;;4.10;1.00;;;;;;;23.60;46.94;101068.72;4842048;29;20133;-74
2022/07/17 03:28:08;;;;;;;1.80;0.98;;;;;;;23.49;44.63;101065.41;4853304;29;20102;-73
2022/07/17 03:30:36;;;;;;;2.03;0.88;;;;;;;23.35;43.59;101069.16;4854413;29;20733;-74
2022/07/17 03:33:05;;;;;;;4.32;0.95;;;;;;;23.25;44.27;101064.06;4855743;29;20057;-75
2022/07/17 03:35:33;;;;;;;4.38;1.08;;;;;;;23.12;44.52;101060.78;4852595;29;20078;-74
2022/07/17 03:38:02;;;;;;;1.25;0.80;;;;;;;23.00;43.97;101075.94;4853398;29;20106;-75
2022/07/17 03:40:32;;;;;;;1.52;0.77;;;;;;;22.92;44.17;101080.44;4854111;29;20050;-72
2022/07/17 03:43:01;;;;;;;1.83;0.70;;;;;;;22.82;43.95;101078.00;4855259;29;20055;-73
2022/07/17 03:45:30;;;;;;;1.27;0.73;;;;;;;22.70;44.48;101081.66;4854174;29;20053;-73
2022/07/17 03:47:58;;;;;;;2.13;0.50;;;;;;;22.53;43.78;101076.66;4849595;29;20062;-73
2022/07/17 03:50:27;;;;;;;1.58;0.40;;;;;;;22.42;44.50;101082.06;4857511;29;20061;-74
2022/07/17 03:52:55;;;;;;;2.15;0.70;;;;;;;22.33;44.02;101085.75;4856445;29;20059;-73
2022/07/17 03:55:24;;;;;;;1.77;0.70;;;;;;;22.22;45.15;101082.38;4864073;29;20053;-74
2022/07/17 03:57:54;;;;;;;0.80;0.50;;;;;;;22.15;45.27;101083.28;4856725;29;20094;-73
2022/07/17 04:00:23;;;;;;;1.70;0.90;;;;;;;22.06;44.69;101079.03;4857749;29;20060;-73
2022/07/17 04:02:51;;;;;;;1.23;0.70;;;;;;;21.98;46.03;101095.81;4857431;29;20057;-73
2022/07/17 04:05:20;;;;;;;0.75;0.60;;;;;;;21.83;45.97;101100.41;4860223;29;20519;-72
2022/07/17 04:07:48;;;;;;;1.70;0.50;;;;;;;21.74;45.61;101090.84;4859796;29;20542;-73
2022/07/17 04:10:17;;;;;;;0.60;0.50;;;;;;;21.67;46.16;101098.78;4853463;29;20123;-73
2022/07/17 04:12:47;;;;;;;3.33;0.80;;;;;;;21.59;46.04;101095.38;4849874;29;20113;-72
2022/07/17 04:15:49;;;;;;;1.50;0.77;;;;;;;21.48;47.02;101096.34;4854462;29;20061;-74
2022/07/17 04:18:07;;;;;;;1.20;0.60;;;;;;;21.37;46.76;101102.59;4876066;29;20076;-75
2022/07/17 04:20:35;;;;;;;0.95;0.60;;;;;;;21.31;46.86;101104.41;4870584;29;20057;-76
2022/07/17 04:23:05;;;;;;;2.33;0.63;;;;;;;21.19;46.52;101106.25;4869464;29;20072;-75
2022/07/17 04:25:33;;;;;;;1.45;0.68;;;;;;;21.14;47.31;101108.94;4875101;29;20049;-75
2022/07/17 04:28:02;;;;;;;2.78;0.60;;;;;;;21.06;47.56;101118.66;4872647;29;20060;-75
2022/07/17 04:30:32;;;;;;;4.38;0.50;;;;;;;20.97;47.52;101127.50;4876199;29;20052;-78
2022/07/17 04:33:01;;;;;;;1.60;0.70;;;;;;;20.87;47.46;101120.56;4879410;29;20094;-77
2022/07/17 04:35:30;;;;;;;2.47;0.63;;;;;;;20.74;48.00;101124.16;4873556;29;20056;-75
2022/07/17 04:37:59;;;;;;;0.75;0.68;;;;;;;20.70;49.27;101134.69;4875409;29;20057;-77
2022/07/17 04:40:28;;;;;;;2.65;0.80;;;;;;;20.66;49.04;101132.97;4877106;29;20526;-77
2022/07/17 04:42:56;;;;;;;1.80;0.60;;;;;;;20.61;48.43;101134.72;4882789;29;20049;-79
2022/07/17 04:45:25;;;;;;;2.42;0.63;;;;;;;20.59;49.31;101144.41;4871462;29;20113;-76
2022/07/17 04:47:55;;;;;;;2.67;0.68;;;;;;;20.54;50.96;101133.00;4869069;29;20480;-78
2022/07/17 04:50:24;;;;;;;1.95;0.60;;;;;;;20.47;49.23;101142.66;4871801;29;20112;-79
2022/07/17 04:52:52;;;;;;;2.55;0.70;;;;;;;20.44;49.99;101141.81;4869202;29;20045;-76
2022/07/17 04:55:21;;;;;;;2.05;0.60;;;;;;;20.43;49.71;101142.69;4883890;29;20049;-75
2022/07/17 04:57:50;;;;;;;1.55;0.80;;;;;;;20.43;49.46;101150.56;4882492;29;20061;-76
2022/07/17 05:00:18;;;;;;;2.85;0.75;;;;;;;20.41;49.72;101152.34;4867012;29;20507;-76
2022/07/17 05:02:47;;;;;;;1.95;0.80;;;;;;;20.39;49.60;101151.50;4871979;29;20406;-76
2022/07/17 05:05:17;;;;;;;2.05;0.60;;;;;;;20.38;49.64;101152.34;4866890;29;20490;-77
2022/07/17 05:07:46;;;;;;;1.52;0.80;;;;;;;20.38;49.70;101152.34;4884140;29;20466;-79
2022/07/17 05:10:15;;;;;;;1.90;0.70;;;;;;;20.38;49.75;101157.63;4876621;29;20439;-76
2022/07/17 05:12:43;;;;;;;3.38;0.73;;;;;;;20.35;50.19;101160.25;4876707;29;20049;-77
2022/07/17 05:15:12;;;;;;;0.95;0.70;;;;;;;20.35;50.41;101160.25;4881802;29;20574;-76
2022/07/17 05:17:55;;;;;;;2.45;0.88;;;;;;;20.33;50.13;101156.78;4875481;29;20060;-77
2022/07/17 05:20:26;;;;;;;2.67;0.70;;;;;;;20.32;50.35;101162.88;4871335;29;20496;-76
2022/07/17 05:22:55;;;;;;;1.30;0.70;;;;;;;20.28;50.08;101162.91;4873723;29;20078;-73
2022/07/17 05:25:24;;;;;;;1.70;0.70;;;;;;;20.26;50.10;101169.06;4873898;29;20060;-76
2022/07/17 05:27:52;;;;;;;2.05;0.70;;;;;;;20.26;50.58;101175.19;4870048;29;20049;-75
2022/07/17 05:30:21;;;;;;;2.33;0.65;;;;;;;20.25;50.27;101177.84;4873696;29;20056;-76
2022/07/17 05:32:50;;;;;;;1.80;0.90;;;;;;;20.20;50.38;101174.31;4875924;29;20068;-77
2022/07/17 05:35:18;;;;;;;2.10;0.80;;;;;;;20.16;52.02;101170.84;4875087;29;20811;-76
2022/07/17 05:37:49;;;;;;;2.15;0.77;;;;;;;20.12;51.23;101171.72;4872596;29;20056;-77
2022/07/17 05:40:18;;;;;;;2.75;0.80;;;;;;;20.11;50.98;101169.09;4865754;29;20507;-77
2022/07/17 05:42:46;;;;;;;1.40;0.60;;;;;;;20.10;50.79;101165.59;4879855;29;20044;-78
2022/07/17 05:45:15;;;;;;;0.88;0.60;;;;;;;20.08;51.00;101164.72;4866412;29;20523;-77
2022/07/17 05:47:43;;;;;;;3.17;0.93;;;;;;;20.04;51.62;101174.41;4868360;29;20414;-74
2022/07/17 05:50:12;;;;;;;1.17;0.50;;;;;;;20.01;51.47;101169.13;4870393;29;20053;-76
2022/07/17 05:52:41;;;;;;;1.10;0.70;;;;;;;19.98;51.95;101176.16;4867709;29;20515;-75
2022/07/17 05:55:11;;;;;;;3.10;0.70;;;;;;;19.97;51.34;101169.13;4877229;29;20053;-74
2022/07/17 05:57:40;;;;;;;1.67;0.70;;;;;;;19.97;51.41;101161.25;4872574;29;20064;-74
2022/07/17 06:00:10;;;;;;;0.90;0.60;;;;;;;19.97;51.82;101161.25;4874877;29;20049;-74
2022/07/17 06:02:39;;;;;;;1.52;0.70;;;;;;;19.94;51.67;101162.16;4870753;29;20045;-76
2022/07/17 06:05:09;;;;;;;1.98;1.00;;;;;;;19.91;51.42;101161.31;4871688;29;20041;-74
2022/07/17 06:07:37;;;;;;;1.90;0.65;;;;;;;19.91;51.58;101177.94;4885107;29;20057;-76
2022/07/17 06:10:07;;;;;;;2.53;1.00;;;;;;;19.91;51.89;101170.03;4876208;29;20118;-75
2022/07/17 06:12:38;;;;;;;2.08;0.80;;;;;;;19.91;51.25;101169.19;4873692;29;20056;-74
2022/07/17 06:15:07;;;;;;;1.38;0.73;;;;;;;19.87;50.95;101168.28;4870403;29;20389;-75
2022/07/17 06:17:36;;;;;;;2.22;0.80;;;;;;;19.87;51.06;101169.16;4876409;29;20065;-75
2022/07/17 06:20:05;;;;;;;3.67;0.82;;;;;;;19.86;51.09;101174.44;4875521;29;20056;-75
2022/07/17 06:22:34;;;;;;;1.30;0.70;;;;;;;19.84;51.03;101177.06;4873594;29;20041;-76
2022/07/17 06:25:02;;;;;;;1.25;0.63;;;;;;;19.80;51.21;101172.69;4873730;29;20064;-74
2022/07/17 06:27:31;;;;;;;1.35;0.70;;;;;;;19.78;51.38;101177.06;4875036;29;20109;-75
2022/07/17 06:30:01;;;;;;;4.25;0.90;;;;;;;19.75;51.70;101169.19;4864896;29;20091;-75
2022/07/17 06:32:29;;;;;;;1.35;0.60;;;;;;;19.73;51.75;101168.31;4864726;29;20057;-75
2022/07/17 06:34:58;;;;;;;2.17;0.63;;;;;;;19.72;51.72;101169.19;4870885;29;20053;-75
2022/07/17 06:37:26;;;;;;;3.47;0.75;;;;;;;19.68;51.56;101175.31;4871808;29;20060;-75
2022/07/17 06:39:55;;;;;;;0.93;0.63;;;;;;;19.64;51.39;101174.44;4872425;29;20045;-75
2022/07/17 06:42:24;;;;;;;2.47;0.60;;;;;;;19.62;51.91;101176.19;4878095;29;20056;-76
2022/07/17 06:44:53;;;;;;;3.20;0.90;;;;;;;19.58;51.50;101173.56;4868746;29;20084;-75
2022/07/17 06:47:23;;;;;;;1.13;0.70;;;;;;;19.56;51.79;101168.31;4873080;29;20616;-75
2022/07/17 06:49:51;;;;;;;1.40;0.70;;;;;;;19.55;51.50;101165.69;4874241;29;20045;-75
2022/07/17 06:52:20;;;;;;;2.28;0.80;;;;;;;19.52;52.08;101171.81;4869610;29;20053;-76
2022/07/17 06:54:49;;;;;;;1.75;0.70;;;;;;;19.52;51.50;101168.34;4876582;29;20108;-76
2022/07/17 06:57:17;;;;;;;3.00;0.80;;;;;;;19.52;52.13;101170.97;4875782;29;20136;-75
2022/07/17 06:59:46;;;;;;;3.10;0.82;;;;;;;19.52;52.23;101177.06;4868235;29;20496;-75
2022/07/17 07:02:14;;;;;;;1.65;0.88;;;;;;;19.47;52.69;101168.34;4870147;29;20517;-74
2022/07/17 07:04:44;;;;;;;2.28;0.70;;;;;;;19.44;53.60;101178.81;4868877;29;20487;-75
2022/07/17 07:07:13;;;;;;;1.63;0.80;;;;;;;19.41;53.72;101181.44;4880759;29;20464;-75
2022/07/17 07:09:42;;;;;;;1.95;0.60;;;;;;;19.40;52.96;101180.59;4869091;29;20117;-74
2022/07/17 07:12:10;;;;;;;1.90;0.70;;;;;;;19.40;52.87;101175.34;4867198;29;20048;-74
2022/07/17 07:14:39;;;;;;;4.22;0.88;;;;;;;19.39;52.52;101178.81;4868361;29;20056;-75
2022/07/17 07:17:07;;;;;;;1.95;0.82;;;;;;;19.39;53.62;101184.06;4866319;29;20200;-75
2022/07/17 07:19:36;;;;;;;1.63;1.00;;;;;;;19.39;52.94;101186.69;4861421;29;20064;-75
2022/07/17 07:22:06;;;;;;;2.85;0.95;;;;;;;19.38;52.79;101182.31;4858414;29;20918;-74
2022/07/17 07:24:35;;;;;;;2.25;0.90;;;;;;;19.39;52.82;101183.19;4854770;29;20120;-75
2022/07/17 07:27:03;;;;;;;1.35;0.70;;;;;;;19.39;53.99;101186.69;4860920;29;20058;-75
2022/07/17 07:29:32;;;;;;;1.75;0.70;;;;;;;19.37;54.77;101183.19;4863126;29;20049;-74
2022/07/17 07:32:00;;;;;;;2.55;0.80;;;;;;;19.33;55.66;101184.06;4864770;29;20056;-74
2022/07/17 07:34:29;;;;;;;2.00;0.60;;;;;;;19.33;55.92;101191.06;4864271;29;20109;-75
2022/07/17 07:36:57;;;;;;;1.45;0.65;;;;;;;19.33;54.87;101191.91;4872725;29;20052;-74
2022/07/17 07:39:27;;;;;;;1.85;0.75;;;;;;;19.31;54.91;101188.44;4860927;29;20053;-74
2022/07/17 07:41:56;;;;;;;1.63;0.70;;;;;;;19.30;54.47;101189.31;4865944;29;20061;-74
2022/07/17 07:44:25;;;;;;;1.70;0.88;;;;;;;19.25;54.27;101185.81;4848136;29;20053;-74
2022/07/17 07:46:53;;;;;;;1.48;0.90;;;;;;;19.23;56.78;101185.81;4853614;29;20532;-74
2022/07/17 07:49:22;;;;;;;1.25;0.80;;;;;;;19.21;55.25;101184.94;4847835;29;20144;-74
2022/07/17 07:51:50;;;;;;;1.17;1.00;;;;;;;19.22;54.90;101180.56;4851948;29;20705;-75
2022/07/17 07:54:19;;;;;;;4.28;0.80;;;;;;;19.21;54.98;101184.06;4866882;29;20053;-74
2022/07/17 07:56:49;;;;;;;1.73;0.90;;;;;;;19.19;55.82;101175.31;4862356;29;20361;-74
2022/07/17 07:59:18;;;;;;;1.05;0.70;;;;;;;19.17;54.89;101174.44;4856684;29;20053;-74
2022/07/17 08:01:47;;;;;;;1.08;0.90;;;;;;;19.17;56.01;101171.81;4855254;29;20045;-75
2022/07/17 08:04:15;;;;;;;1.38;0.73;;;;;;;19.16;55.92;101181.44;4856437;29;20045;-75
2022/07/17 08:06:44;;;;;;;2.72;0.85;;;;;;;19.15;54.61;101170.94;4860054;29;20088;-76
2022/07/17 08:09:12;;;;;;;1.63;0.70;;;;;;;19.12;53.92;101173.56;4856491;29;20057;-76
2022/07/17 08:11:41;;;;;;;1.58;0.88;;;;;;;19.09;54.17;101173.56;4858820;29;20739;-75
2022/07/17 08:14:11;;;;;;;1.88;0.63;;;;;;;19.05;53.77;101175.28;4863817;29;20507;-75
2022/07/17 08:16:40;;;;;;;1.88;0.73;;;;;;;19.01;53.40;101177.06;4864658;29;20465;-74
2022/07/17 08:19:08;;;;;;;1.13;0.68;;;;;;;18.96;53.60;101176.16;4874507;29;20059;-74
2022/07/17 08:21:37;;;;;;;1.48;0.70;;;;;;;18.91;54.43;101175.28;4875565;29;20049;-75
2022/07/17 08:24:06;;;;;;;2.50;0.80;;;;;;;18.90;53.70;101177.88;4877607;29;20150;-76
2022/07/17 08:26:35;;;;;;;1.23;0.60;;;;;;;18.87;53.75;101178.75;4864515;29;20567;-74
2022/07/17 08:29:03;;;;;;;2.35;0.80;;;;;;;18.83;54.33;101175.28;4869452;29;20104;-75
2022/07/17 08:31:33;;;;;;;2.88;0.80;;;;;;;18.82;54.27;101185.75;4875376;29;21120;-74
2022/07/17 08:34:02;;;;;;;2.35;0.70;;;;;;;18.80;54.21;101179.63;4872272;29;20054;-74
2022/07/17 08:36:31;;;;;;;3.45;0.80;;;;;;;18.76;54.68;101183.97;4869121;29;20064;-74
2022/07/17 08:38:59;;;;;;;1.45;0.63;;;;;;;18.71;56.86;101190.91;4864924;29;20058;-74
2022/07/17 08:41:29;;;;;;;2.80;0.90;;;;;;;18.68;56.29;101187.44;4872592;29;20057;-74
2022/07/17 08:43:57;;;;;;;2.28;0.80;;;;;;;18.68;56.13;101182.19;4875066;29;20060;-74
2022/07/17 08:46:29;;;;;;;1.33;0.70;;;;;;;18.64;55.09;101183.91;4875918;29;20491;-76
2022/07/17 08:49:00;;;;;;;0.80;0.63;;;;;;;18.59;55.66;101176.03;4874744;29;20518;-74
2022/07/17 08:51:29;;;;;;;2.23;0.70;;;;;;;18.58;55.68;101182.16;4873879;29;20447;-74
2022/07/17 08:53:59;;;;;;;3.53;0.82;;;;;;;18.57;55.66;101175.16;4873614;29;20686;-74
2022/07/17 08:56:28;;;;;;;2.15;0.82;;;;;;;18.54;57.92;101185.63;4884540;29;20438;-75
2022/07/17 08:58:57;;;;;;;1.08;0.60;;;;;;;18.52;55.44;101190.00;4869128;29;20113;-74
2022/07/17 09:01:26;;;;;;;1.15;0.70;;;;;;;18.53;55.43;101186.50;4876615;29;20060;-74
2022/07/17 09:04:05;;;;;;;1.60;0.70;;;;;;;18.55;55.47;101182.13;4873091;29;20049;-75
2022/07/17 09:06:35;;;;;;;1.55;0.60;;;;;;;18.54;55.28;101175.16;4870322;29;20168;-74
2022/07/17 09:09:09;;;;;;;1.88;0.63;;;;;;;18.51;55.94;101172.53;4877849;29;20054;-76
2022/07/17 09:11:48;;;;;;;2.75;0.70;;;;;;;18.50;55.41;101177.75;4879011;29;20136;-74
2022/07/17 09:14:17;;;;;;;1.38;0.80;;;;;;;18.46;55.43;101170.75;4873683;29;20526;-75
2022/07/17 09:16:56;;;;;;;1.98;0.70;;;;;;;18.42;55.66;101170.75;4882121;29;20567;-76
2022/07/17 09:19:31;;;;;;;3.05;0.60;;;;;;;18.40;56.11;101176.84;4872115;29;20065;-76
2022/07/17 09:22:07;;;;;;;1.92;0.57;;;;;;;18.36;55.34;101169.84;4867533;29;20417;-76
2022/07/17 09:24:45;;;;;;;1.30;0.93;;;;;;;18.34;55.44;101176.81;4870376;29;20064;-76
2022/07/17 09:27:17;;;;;;;2.75;0.60;;;;;;;18.32;55.86;101173.31;4872219;29;20436;-76
2022/07/17 09:29:52;;;;;;;;;;;;;;;18.31;55.44;101176.81;4884317;29;20061;-75
2022/07/17 09:32:21;;;;;;;1.08;0.55;;;;;;;18.29;55.66;101176.78;4878321;29;19930;-76
2022/07/17 09:34:52;;;;;;;1.13;0.68;;;;;;;18.30;54.86;101180.28;4871113;29;20101;-76
2022/07/17 09:37:23;;;;;;;1.13;1.02;;;;;;;18.27;55.84;101182.91;4874588;29;20500;-76
2022/07/17 09:39:53;;;;;;;2.97;0.95;;;;;;;18.22;55.79;101175.03;4871419;29;20064;-76
2022/07/17 09:42:29;;;;;;;1.58;0.60;;;;;;;18.20;55.35;101182.84;4864811;29;20443;-75
2022/07/17 09:45:09;;;;;;;2.20;0.80;;;;;;;18.16;55.49;101186.34;4880563;29;20467;-74
2022/07/17 09:47:41;;;;;;;2.45;0.65;;;;;;;18.14;55.97;101179.34;4872765;29;20575;-75
2022/07/17 09:50:11;;;;;;;2.17;0.50;;;;;;;18.12;55.66;101181.97;4873897;29;20052;-74
2022/07/17 09:52:40;;;;;;;1.77;0.60;;;;;;;18.12;56.10;101179.34;4870145;29;20538;-75
2022/07/17 09:55:09;;;;;;;1.30;0.65;;;;;;;18.12;55.78;101183.69;4873836;29;20048;-74
2022/07/17 09:57:41;;;;;;;1.75;0.50;;;;;;;18.11;55.99;101181.94;4876397;29;20139;-75
2022/07/17 10:00:12;;;;;;;1.48;0.50;;;;;;;18.12;54.93;101179.34;4869086;29;20060;-76
2022/07/17 10:02:42;;;;;;;1.52;0.60;;;;;;;18.13;55.78;101181.09;4876625;29;20541;-76
2022/07/17 10:05:15;;;;;;;1.52;0.60;;;;;;;18.14;55.01;101177.63;4866357;29;20056;-76
2022/07/17 10:07:45;;;;;;;1.90;0.50;;;;;;;18.08;54.91;101164.47;4871964;29;20041;-75
2022/07/17 10:10:15;;;;;;;2.40;0.70;;;;;;;18.11;55.40;101169.72;4869244;29;20128;-75
2022/07/17 10:12:45;;;;;;;0.60;0.50;;;;;;;18.12;54.36;101170.59;4871168;29;20104;-75
2022/07/17 10:15:14;;;;;;;1.75;0.50;;;;;;;18.12;53.72;101173.22;4872781;29;20521;-76
2022/07/17 10:17:56;;;;;;;0.82;0.57;;;;;;;18.08;54.40;101174.94;4872020;29;20110;-75
2022/07/17 10:20:29;;;;;;;0.93;0.47;;;;;;;18.02;54.13;101166.19;4863463;29;20057;-76
2022/07/17 10:22:58;;;;;;;1.35;0.50;;;;;;;17.98;53.98;101162.66;4864049;29;20446;-77
2022/07/17 10:25:26;;;;;;;1.30;0.50;;;;;;;17.98;53.67;101165.28;4874877;29;20056;-76
2022/07/17 10:27:56;;;;;;;1.63;0.57;;;;;;;17.91;54.17;101151.31;4865050;29;20056;-76
2022/07/17 10:30:31;;;;;;;0.40;0.40;;;;;;;17.93;53.49;101167.00;4868831;29;20054;-78
2022/07/17 10:33:01;;;;;;;1.20;0.50;;;;;;;17.90;53.54;101167.88;4861346;29;20049;-75
2022/07/17 10:35:42;;;;;;;0.80;0.50;;;;;;;17.90;53.97;101169.63;4872972;29;20049;-76
2022/07/17 10:38:13;;;;;;;1.17;0.50;;;;;;;17.91;53.19;101171.34;4868366;29;20048;-76
2022/07/17 10:40:41;;;;;;;1.50;0.40;;;;;;;17.82;53.38;101150.34;4869642;29;20046;-77
2022/07/17 10:43:12;;;;;;;0.43;0.30;;;;;;;17.90;53.18;101173.09;4864454;29;20076;-75
2022/07/17 10:45:42;;;;;;;0.75;0.40;;;;;;;17.88;52.61;101169.59;4863881;29;20436;-76
2022/07/17 10:48:12;;;;;;;0.85;0.60;;;;;;;17.87;53.05;101169.59;4861462;29;20133;-76
2022/07/17 10:50:45;;;;;;;1.45;0.70;;;;;;;17.87;52.91;101172.22;4865854;29;20053;-75
2022/07/17 10:53:17;;;;;;;2.30;0.60;;;;;;;17.82;53.65;101166.97;4870134;29;20061;-75
2022/07/17 10:55:47;;;;;;;1.25;0.45;;;;;;;17.75;53.59;101176.47;4870024;29;20073;-76
2022/07/17 10:58:22;;;;;;;0.70;0.40;;;;;;;17.71;53.59;101172.09;4872746;29;20449;-76
2022/07/17 11:01:09;;;;;;;0.63;0.40;;;;;;;17.69;53.57;101178.19;4875746;29;20113;-75
2022/07/17 11:03:41;;;;;;;2.00;0.47;;;;;;;17.71;53.78;101176.44;4879489;29;20048;-76
2022/07/17 11:06:17;;;;;;;2.35;0.70;;;;;;;17.68;54.34;101185.13;4869295;29;20053;-76
2022/07/17 11:08:48;;;;;;;1.85;0.55;;;;;;;17.69;53.53;101186.91;4870020;29;20397;-76
2022/07/17 11:11:18;;;;;;;1.17;0.40;;;;;;;17.72;54.47;101180.81;4873325;29;20066;-77
2022/07/17 11:13:47;;;;;;;0.50;0.50;;;;;;;17.74;53.66;101182.56;4870292;29;20064;-75
2022/07/17 11:16:26;;;;;;;3.38;0.50;;;;;;;17.71;55.22;101179.94;4871280;29;20057;-76
2022/07/17 11:18:57;;;;;;;0.40;0.32;;;;;;;17.69;55.77;101181.66;4874554;29;20065;-76
2022/07/17 11:21:28;;;;;;;0.95;0.40;;;;;;;17.68;54.61;101185.13;4872885;29;20052;-76
2022/07/17 11:23:58;;;;;;;0.60;0.32;;;;;;;17.64;53.57;101182.47;4875741;29;20056;-76
2022/07/17 11:26:27;;;;;;;0.90;0.43;;;;;;;17.63;53.52;101185.97;4874053;29;20056;-76
2022/07/17 11:28:57;;;;;;;2.10;0.60;;;;;;;17.67;54.51;101182.53;4871007;29;20140;-77
2022/07/17 11:31:28;;;;;;;1.00;0.52;;;;;;;17.60;52.92;101173.75;4876725;29;20105;-76
2022/07/17 11:33:58;;;;;;;0.40;0.40;;;;;;;17.64;52.37;101172.91;4873480;29;20101;-76
2022/07/17 11:36:31;;;;;;;1.05;0.30;;;;;;;17.64;52.15;101172.91;4881470;29;20743;-77